Time;durP1;ratioP1;P1;durP2;ratioP2;P2;SDS_P1;SDS_P2;PMS_P1;PMS_P2;Temp;Humidity;BMP_temperature;BMP_pressure;BME280_temperature;BME280_humidity;BME280_pressure;Samples;Min_cycle;Max_cycle;Signal;HPM_P1;HPM_P2
2022/05/20 00:00:50;;;;;;;8.20;3.08;;;15.20;99.90;;;;;;4978961;28;20012;-63
2022/05/20 00:03:17;;;;;;;3.83;2.70;;;15.20;99.90;;;;;;4979053;28;20076;-64
2022/05/20 00:05:45;;;;;;;7.75;3.03;;;15.10;99.90;;;;;;4978244;28;20143;-64
2022/05/20 00:08:12;;;;;;;6.13;2.83;;;15.10;99.90;;;;;;4977933;28;20041;-63
2022/05/20 00:10:40;;;;;;;6.40;2.88;;;15.20;99.90;;;;;;4976236;28;20822;-64
2022/05/20 00:13:10;;;;;;;4.40;2.75;;;15.20;99.90;;;;;;4978537;28;20568;-63
2022/05/20 00:15:37;;;;;;;8.40;3.08;;;15.20;99.90;;;;;;4977686;28;20050;-64
2022/05/20 00:18:04;;;;;;;5.18;3.40;;;15.20;99.90;;;;;;4977477;28;20046;-65
2022/05/20 00:20:32;;;;;;;3.90;2.58;;;15.30;99.90;;;;;;4977843;28;20531;-64
2022/05/20 00:22:59;;;;;;;7.03;3.05;;;15.30;99.90;;;;;;4977997;28;20038;-63
2022/05/20 00:28:14;;;;;;;4.72;2.65;;;15.30;99.90;;;;;;4976515;28;20376;-63
2022/05/20 00:30:41;;;;;;;2.50;2.30;;;15.30;99.90;;;;;;4977343;28;20050;-64
2022/05/20 00:33:09;;;;;;;4.13;2.65;;;15.30;99.90;;;;;;4978263;28;20046;-65
2022/05/20 00:35:35;;;;;;;3.90;2.50;;;15.30;99.90;;;;;;4992070;28;20100;-64
2022/05/20 00:38:02;;;;;;;;;;;15.30;99.90;;;;;;4977732;28;20054;-63
2022/05/20 00:40:29;;;;;;;9.73;3.33;;;15.30;99.90;;;;;;4977197;28;19926;-64
2022/05/20 00:43:21;;;;;;;;;;;15.30;99.90;;;;;;4977191;28;20696;-64
2022/05/20 00:45:48;;;;;;;7.78;3.20;;;15.20;99.90;;;;;;4977320;28;19933;-63
2022/05/20 00:48:15;;;;;;;8.85;3.45;;;15.20;99.90;;;;;;4976748;28;20046;-64
2022/05/20 00:50:43;;;;;;;;;;;15.20;99.90;;;;;;4976652;28;20042;-64
2022/05/20 00:53:14;;;;;;;4.70;2.83;;;15.20;99.90;;;;;;4973904;28;20036;-63
2022/05/20 00:55:42;;;;;;;9.93;2.90;;;15.20;99.90;;;;;;4977486;28;20057;-64
2022/05/20 00:58:14;;;;;;;5.82;2.92;;;15.20;99.90;;;;;;4976343;28;20039;-63
2022/05/20 01:00:46;;;;;;;4.38;3.13;;;15.20;99.90;;;;;;4975847;28;20674;-62
2022/05/20 01:03:16;;;;;;;7.88;3.50;;;15.20;99.90;;;;;;4976691;28;20042;-63
2022/05/20 01:05:47;;;;;;;4.30;3.55;;;15.30;99.90;;;;;;4976637;28;20046;-63
2022/05/20 01:08:18;;;;;;;7.75;3.22;;;15.30;99.90;;;;;;4976627;28;20064;-64
2022/05/20 01:10:45;;;;;;;14.35;3.40;;;15.30;99.90;;;;;;4976292;28;20046;-63
2022/05/20 01:13:15;;;;;;;10.43;3.45;;;15.30;99.90;;;;;;4975396;28;20046;-63
2022/05/20 01:15:42;;;;;;;6.25;2.88;;;15.30;99.90;;;;;;4975999;28;20125;-63
2022/05/20 01:18:12;;;;;;;3.42;3.03;;;15.30;99.90;;;;;;4974943;28;20072;-63
2022/05/20 01:20:43;;;;;;;6.93;3.35;;;15.30;99.90;;;;;;4975962;28;20054;-64
2022/05/20 01:23:15;;;;;;;8.65;3.22;;;15.30;99.90;;;;;;4975029;28;20050;-63
2022/05/20 01:25:45;;;;;;;10.57;3.05;;;15.30;99.90;;;;;;4975628;28;20275;-63
2022/05/20 01:28:12;;;;;;;10.10;3.75;;;15.30;99.90;;;;;;4975085;28;20050;-62
2022/05/20 01:30:44;;;;;;;17.98;3.13;;;15.30;99.90;;;;;;4976015;28;20046;-63
2022/05/20 01:33:11;;;;;;;7.03;3.97;;;15.30;99.90;;;;;;4976380;28;20088;-64
2022/05/20 01:35:39;;;;;;;4.88;3.10;;;15.30;99.90;;;;;;4976017;28;20050;-62
2022/05/20 01:38:08;;;;;;;6.82;4.45;;;15.30;99.90;;;;;;4975943;28;20050;-62
2022/05/20 01:41:00;;;;;;;10.02;3.97;;;15.30;99.90;;;;;;4975989;28;20141;-63
2022/05/20 01:43:40;;;;;;;11.75;3.65;;;15.30;99.90;;;;;;4975136;28;20312;-63
2022/05/20 01:46:30;;;;;;;5.63;3.22;;;15.30;99.90;;;;;;4976396;28;20820;-64
2022/05/20 01:49:36;;;;;;;6.90;3.78;;;15.30;99.90;;;;;;4974226;28;20041;-65
2022/05/20 01:52:08;;;;;;;6.07;3.72;;;15.30;99.90;;;;;;4977308;28;20046;-63
2022/05/20 01:54:44;;;;;;;3.70;3.28;;;15.30;99.90;;;;;;4972986;28;20050;-64
2022/05/20 01:57:20;;;;;;;4.60;3.53;;;15.30;99.90;;;;;;4975497;28;20046;-64
2022/05/20 01:59:53;;;;;;;6.10;3.42;;;15.30;99.90;;;;;;4973644;28;20149;-64
2022/05/20 02:02:29;;;;;;;7.05;3.10;;;15.40;99.90;;;;;;4976243;28;20042;-63
2022/05/20 02:05:11;;;;;;;6.70;4.38;;;15.30;99.90;;;;;;4975388;28;20094;-64
2022/05/20 02:07:42;;;;;;;3.70;3.00;;;15.30;99.90;;;;;;4975879;28;20155;-63
2022/05/20 02:10:25;;;;;;;5.78;3.05;;;15.30;99.90;;;;;;4974198;28;20046;-63
2022/05/20 02:12:56;;;;;;;6.63;3.40;;;15.30;99.90;;;;;;4975843;28;20054;-64
2022/05/20 02:15:26;;;;;;;7.38;3.63;;;15.30;99.90;;;;;;4975645;28;20054;-64
2022/05/20 02:17:57;;;;;;;5.65;3.00;;;15.30;99.90;;;;;;4973615;28;20100;-64
2022/05/20 02:20:44;;;;;;;3.88;3.40;;;15.30;99.90;;;;;;4975166;28;20042;-64
2022/05/20 02:23:31;;;;;;;5.32;3.28;;;15.20;99.90;;;;;;4975749;28;20150;-64
2022/05/20 02:26:03;;;;;;;7.50;4.00;;;15.20;99.90;;;;;;4966855;28;20130;-64
2022/05/20 02:28:38;;;;;;;8.18;3.95;;;15.20;99.90;;;;;;4955919;28;20073;-63
2022/05/20 02:31:13;;;;;;;5.97;3.30;;;15.20;99.90;;;;;;4956314;28;20122;-63
2022/05/20 02:33:40;;;;;;;6.65;3.90;;;15.30;99.90;;;;;;4962518;28;20060;-64
2022/05/20 02:36:23;;;;;;;8.32;3.33;;;15.20;99.90;;;;;;4975278;28;20053;-65
2022/05/20 02:38:50;;;;;;;8.35;3.85;;;15.20;99.90;;;;;;4973343;28;20047;-64
2022/05/20 02:41:17;;;;;;;5.20;3.38;;;15.20;99.90;;;;;;4974866;28;20052;-64
2022/05/20 02:43:44;;;;;;;5.95;3.38;;;15.20;99.90;;;;;;4973540;28;20435;-64
2022/05/20 02:46:12;;;;;;;;;;;15.20;99.90;;;;;;4975243;28;20042;-64
2022/05/20 02:48:39;;;;;;;9.55;4.53;;;15.20;99.90;;;;;;4974782;28;19929;-63
2022/05/20 02:51:06;;;;;;;6.55;4.28;;;15.20;99.90;;;;;;4975541;28;20050;-64
2022/05/20 02:53:33;;;;;;;;;;;15.30;99.90;;;;;;4974214;28;20114;-63
2022/05/20 02:56:00;;;;;;;12.40;4.93;;;15.30;99.90;;;;;;4978334;28;19926;-64
2022/05/20 03:04:09;;;;;;;5.30;3.97;;;15.50;99.90;;;;;;4978345;28;20100;-64
2022/05/20 03:06:43;;;;;;;5.47;3.97;;;15.50;99.90;;;;;;4978910;28;20126;-64
2022/05/20 03:09:12;;;;;;;7.38;4.40;;;15.50;99.90;;;;;;4977807;28;20053;-64
2022/05/20 03:11:39;;;;;;;8.20;4.25;;;15.50;99.90;;;;;;4976466;28;20061;-64
2022/05/20 03:14:09;;;;;;;9.65;4.03;;;15.50;99.90;;;;;;4978339;28;20054;-64
2022/05/20 03:16:37;;;;;;;7.72;3.95;;;15.50;99.90;;;;;;4976664;28;20534;-64
2022/05/20 03:19:05;;;;;;;6.43;4.07;;;15.50;99.90;;;;;;4977482;28;20057;-64
2022/05/20 03:21:32;;;;;;;11.18;4.10;;;15.40;99.90;;;;;;4978435;28;20070;-64
2022/05/20 03:23:59;;;;;;;7.07;4.28;;;15.40;99.90;;;;;;4979180;28;20350;-64
2022/05/20 03:26:28;;;;;;;6.82;4.80;;;15.30;99.90;;;;;;4964698;28;20039;-64
2022/05/20 03:28:57;;;;;;;5.78;4.15;;;15.30;99.90;;;;;;4958233;28;20137;-64
2022/05/20 03:31:24;;;;;;;5.40;3.75;;;15.30;99.90;;;;;;4959532;28;20043;-64
2022/05/20 03:33:51;;;;;;;7.38;4.18;;;15.30;99.90;;;;;;4959228;28;20577;-64
2022/05/20 03:36:17;;;;;;;;;;;15.30;99.90;;;;;;4963342;28;20042;-64
2022/05/20 03:38:44;;;;;;;6.38;4.10;;;15.30;99.90;;;;;;4973431;28;20454;-64
2022/05/20 03:41:11;;;;;;;5.53;4.40;;;15.20;99.90;;;;;;4984113;28;20054;-63
2022/05/20 03:43:38;;;;;;;;;;;15.30;99.90;;;;;;4993753;28;20046;-63
2022/05/20 03:46:05;;;;;;;5.55;4.25;;;15.30;99.90;;;;;;4978629;28;19921;-65
2022/05/20 03:48:31;;;;;;;;;;;15.30;99.90;;;;;;4978695;28;20132;-63
2022/05/20 03:51:08;;;;;;;10.82;4.88;;;15.30;99.90;;;;;;4977675;28;19932;-63
2022/05/20 03:53:35;;;;;;;7.47;4.93;;;15.30;99.90;;;;;;4976231;28;20046;-63
2022/05/20 03:56:02;;;;;;;6.72;4.30;;;15.30;99.90;;;;;;4976339;28;20054;-63
2022/05/20 03:58:29;;;;;;;8.02;4.07;;;15.30;99.90;;;;;;4978101;28;20050;-64
2022/05/20 04:03:45;;;;;;;10.00;4.13;;;15.30;99.90;;;;;;4979317;28;19925;-63
2022/05/20 04:06:13;;;;;;;6.68;5.30;;;15.30;99.90;;;;;;4977693;28;20580;-63
2022/05/20 04:08:40;;;;;;;5.28;4.70;;;15.30;99.90;;;;;;4976468;28;20042;-63
2022/05/20 04:11:11;;;;;;;;;;;15.30;99.90;;;;;;4976443;28;20042;-53
2022/05/20 04:13:39;;;;;;;14.45;5.00;;;15.30;99.90;;;;;;4976337;28;19926;-53
2022/05/20 04:16:08;;;;;;;19.55;5.47;;;15.30;99.90;;;;;;4977834;28;20413;-53
2022/05/20 04:18:35;;;;;;;8.10;4.93;;;15.40;99.90;;;;;;4974656;28;20049;-54
2022/05/20 04:21:02;;;;;;;;;;;15.40;99.90;;;;;;4978611;28;20539;-52
2022/05/20 04:23:28;;;;;;;14.20;4.80;;;15.50;99.90;;;;;;4976705;28;19933;-54
2022/05/20 04:25:55;;;;;;;;;;;15.50;99.90;;;;;;4976316;28;20045;-52
2022/05/20 04:28:22;;;;;;;6.88;5.75;;;15.60;99.90;;;;;;4976988;28;19928;-55
2022/05/20 04:30:50;;;;;;;;;;;15.60;99.90;;;;;;4978464;28;20050;-54
2022/05/20 04:33:18;;;;;;;7.63;4.93;;;15.70;99.90;;;;;;4977618;28;20558;-54
2022/05/20 04:35:44;;;;;;;;;;;15.80;99.90;;;;;;4978037;28;20039;-53
2022/05/20 04:38:11;;;;;;;7.50;4.93;;;15.80;99.90;;;;;;4976885;28;20011;-52
2022/05/20 04:40:38;;;;;;;;;;;15.90;99.90;;;;;;4976743;28;20160;-55
2022/05/20 04:48:37;;;;;;;6.18;4.50;;;16.10;99.90;;;;;;4976947;28;20081;-54
2022/05/20 04:51:04;;;;;;;;;;;16.10;99.90;;;;;;4977303;28;20053;-53
2022/05/20 04:56:16;;;;;;;8.90;4.95;;;16.20;99.90;;;;;;4974635;28;20898;-54
2022/05/20 04:58:43;;;;;;;7.60;5.07;;;16.30;99.90;;;;;;4975130;28;20042;-53
2022/05/20 05:01:10;;;;;;;;;;;16.30;99.90;;;;;;4975862;28;20054;-56
2022/05/20 05:03:37;;;;;;;8.40;4.88;;;16.40;99.90;;;;;;4976537;28;19925;-50
2022/05/20 05:06:03;;;;;;;;;;;16.40;99.90;;;;;;4977525;28;20061;-54
2022/05/20 05:08:30;;;;;;;9.20;4.70;;;16.50;99.90;;;;;;4974724;28;19933;-52
2022/05/20 05:10:57;;;;;;;;;;;16.60;99.90;;;;;;4975622;28;20056;-53
2022/05/20 05:13:24;;;;;;;7.68;5.35;;;16.60;99.90;;;;;;4976335;28;20012;-53
2022/05/20 05:15:50;;;;;;;;;;;16.70;99.90;;;;;;4977044;28;20049;-53
2022/05/20 05:18:22;;;;;;;5.78;4.80;;;16.80;99.90;;;;;;4973405;28;19922;-53
2022/05/20 05:20:51;;;;;;;10.65;5.65;;;16.90;99.90;;;;;;4974879;28;20042;-53
2022/05/20 05:23:19;;;;;;;6.78;4.75;;;17.00;99.90;;;;;;4976519;28;20525;-51
2022/05/20 05:25:47;;;;;;;11.02;5.25;;;17.10;99.90;;;;;;4969233;28;20053;-54
2022/05/20 05:28:14;;;;;;;7.90;4.28;;;17.20;99.90;;;;;;4957047;28;20047;-53
2022/05/20 05:30:45;;;;;;;10.63;4.85;;;17.40;99.90;;;;;;4956201;28;20153;-53
2022/05/20 05:33:12;;;;;;;6.45;4.97;;;17.50;99.90;;;;;;4956678;28;20499;-53
2022/05/20 05:35:39;;;;;;;5.70;4.35;;;17.60;99.90;;;;;;4958607;28;20213;-53
2022/05/20 05:38:06;;;;;;;8.80;4.90;;;17.70;99.90;;;;;;4976249;28;20142;-51
2022/05/20 05:40:33;;;;;;;;;;;17.80;99.90;;;;;;4989289;28;20725;-51
2022/05/20 05:43:00;;;;;;;;;;;17.90;99.90;;;;;;4976991;28;19926;-54
2022/05/20 05:45:27;;;;;;;;;;;18.00;99.90;;;;;;4991336;28;19925;-55
2022/05/20 05:47:56;;;;;;;;;;;18.10;99.90;;;;;;4991556;28;19928;-54
2022/05/20 05:50:23;;;;;;;;;;;18.30;99.90;;;;;;4976339;28;19929;-53
2022/05/20 05:52:56;;;;;;;;;;;18.40;99.90;;;;;;4976069;28;20523;-54
2022/05/20 05:55:23;;;;;;;;;;;18.50;99.90;;;;;;4974570;28;19932;-54
2022/05/20 05:57:50;;;;;;;;;;;18.60;99.90;;;;;;4973018;28;19926;-54
2022/05/20 06:00:17;;;;;;;;;;;18.70;99.90;;;;;;4975608;28;19927;-53
2022/05/20 06:02:44;;;;;;;;;;;18.80;99.90;;;;;;4974870;28;19936;-52
2022/05/20 06:05:11;;;;;;;;;;;18.90;99.90;;;;;;4976863;28;20315;-55
2022/05/20 06:07:38;;;;;;;;;;;19.10;99.90;;;;;;4975650;28;19980;-54
2022/05/20 06:10:05;;;;;;;;;;;19.20;99.90;;;;;;4975734;28;19926;-54
2022/05/20 06:12:33;;;;;;;;;;;19.30;99.90;;;;;;4959200;28;19925;-54
2022/05/20 06:15:09;;;;;;;;;;;19.50;99.90;;;;;;4976058;28;19930;-51
2022/05/20 06:17:35;;;;;;;;;;;19.60;99.90;;;;;;4975935;28;20382;-54
2022/05/20 06:20:03;;;;;;;;;;;19.70;99.90;;;;;;4974488;28;19922;-54
2022/05/20 06:22:29;;;;;;;;;;;19.80;99.90;;;;;;4976192;28;20319;-51
2022/05/20 06:24:56;;;;;;;;;;;20.00;99.90;;;;;;4973488;28;19925;-53
2022/05/20 06:27:23;;;;;;;;;;;20.10;99.90;;;;;;4955242;28;19922;-53
2022/05/20 06:29:50;;;;;;;;;;;20.20;99.90;;;;;;4960626;28;19926;-53
2022/05/20 06:32:18;;;;;;;;;;;20.30;99.90;;;;;;4960593;28;19970;-54
2022/05/20 06:40:18;;;;;;;;;;;20.60;99.90;;;;;;4980262;28;19933;-54
2022/05/20 06:42:44;;;;;;;;;;;20.70;99.90;;;;;;4979842;28;19934;-51
2022/05/20 06:45:13;;;;;;;;;;;20.90;99.90;;;;;;4995416;28;19957;-54
2022/05/20 06:47:39;;;;;;;;;;;21.10;99.90;;;;;;4978791;28;19925;-52
2022/05/20 06:50:08;;;;;;;;;;;21.20;99.90;;;;;;4991674;28;20009;-52
2022/05/20 06:52:35;;;;;;;;;;;21.40;99.90;;;;;;4974690;28;19926;-52
2022/05/20 06:55:05;;;;;;;;;;;21.50;99.90;;;;;;4960530;28;20608;-53
2022/05/20 06:57:35;;;;;;;;;;;21.60;99.90;;;;;;4970470;28;19972;-54
2022/05/20 07:00:03;;;;;;;;;;;21.70;99.90;;;;;;4978816;28;20450;-52
2022/05/20 07:02:29;;;;;;;;;;;21.80;99.90;;;;;;4978097;28;20560;-53
2022/05/20 07:04:57;;;;;;;;;;;21.90;99.90;;;;;;4978777;28;20007;-48
2022/05/20 07:07:24;;;;;;;;;;;22.10;99.90;;;;;;4976641;28;19926;-51
2022/05/20 07:09:51;;;;;;;;;;;22.10;99.90;;;;;;4994164;28;20588;-49
2022/05/20 07:12:17;;;;;;;;;;;22.20;99.90;;;;;;4963268;28;19925;-52
2022/05/20 07:14:44;;;;;;;;;;;22.30;99.90;;;;;;4958357;28;19929;-48
2022/05/20 07:17:18;;;;;;;;;;;22.40;99.90;;;;;;4987717;28;19929;-48
2022/05/20 07:19:44;;;;;;;;;;;22.50;99.90;;;;;;4979191;28;19937;-50
2022/05/20 07:22:11;;;;;;;;;;;22.50;99.90;;;;;;4977699;28;19933;-64
2022/05/20 07:24:38;;;;;;;;;;;22.70;99.90;;;;;;4976062;28;19933;-50
2022/05/20 07:27:05;;;;;;;;;;;22.70;99.90;;;;;;4976060;28;19926;-57
2022/05/20 07:29:32;;;;;;;;;;;22.90;99.90;;;;;;4979620;28;19988;-56
2022/05/20 07:31:59;;;;;;;;;;;23.00;99.90;;;;;;4976024;28;19956;-48
2022/05/20 07:34:26;;;;;;;;;;;23.10;99.90;;;;;;4993663;28;20023;-50
2022/05/20 07:36:52;;;;;;;;;;;23.20;99.90;;;;;;4978007;28;19926;-48
2022/05/20 07:39:19;;;;;;;;;;;23.30;99.90;;;;;;4976801;28;19933;-50
2022/05/20 07:41:47;;;;;;;;;;;23.40;99.90;;;;;;4962113;28;20000;-50
2022/05/20 07:44:14;;;;;;;;;;;23.50;99.90;;;;;;4958518;28;20805;-60
2022/05/20 07:46:41;;;;;;;;;;;23.60;99.90;;;;;;4966504;28;19976;-59
2022/05/20 07:49:08;;;;;;;;;;;23.60;99.90;;;;;;4978115;28;19932;-60
2022/05/20 07:51:37;;;;;;;;;;;23.70;99.90;;;;;;4977203;28;20408;-60
2022/05/20 07:54:09;;;;;;;;;;;23.80;99.90;;;;;;4977743;28;20025;-59
2022/05/20 07:56:41;;;;;;;;;;;23.90;99.90;;;;;;4960963;28;19937;-61
2022/05/20 07:59:09;;;;;;;;;;;24.10;99.90;;;;;;4975895;28;20761;-61
2022/05/20 08:01:38;;;;;;;;;;;24.20;99.90;;;;;;4990732;28;19929;-63
2022/05/20 08:06:57;;;;;;;;;;;24.70;99.90;;;;;;4984067;28;20277;-61
2022/05/20 08:09:25;;;;;;;;;;;25.10;99.90;;;;;;4977005;28;19980;-59
2022/05/20 08:11:52;;;;;;;;;;;25.40;99.90;;;;;;4977830;28;20438;-64
2022/05/20 08:14:18;;;;;;;;;;;25.70;99.90;;;;;;4976486;28;19925;-65
2022/05/20 08:16:46;;;;;;;;;;;25.90;99.90;;;;;;4973496;28;19934;-65
2022/05/20 08:19:13;;;;;;;;;;;26.00;99.90;;;;;;4976866;28;19952;-64
2022/05/20 08:21:40;;;;;;;;;;;26.10;99.90;;;;;;4976769;28;20329;-65
2022/05/20 08:24:07;;;;;;;;;;;26.10;99.70;;;;;;4977532;28;20737;-62
2022/05/20 08:26:33;;;;;;;;;;;26.20;99.90;;;;;;4961633;28;19926;-62
2022/05/20 08:29:00;;;;;;;;;;;26.30;98.50;;;;;;4957971;28;19933;-62
2022/05/20 08:31:27;;;;;;;;;;;26.40;99.00;;;;;;4956407;28;20370;-62
2022/05/20 08:33:54;;;;;;;;;;;26.50;96.80;;;;;;4956980;28;19953;-63
2022/05/20 08:36:21;;;;;;;;;;;26.70;97.30;;;;;;4964928;28;20004;-63
2022/05/20 08:38:48;;;;;;;;;;;26.90;95.80;;;;;;4975588;28;20003;-63
2022/05/20 08:41:24;;;;;;;;;;;27.00;95.60;;;;;;4977029;28;20028;-63
2022/05/20 08:43:51;;;;;;;;;;;27.20;95.10;;;;;;4975716;28;19933;-60
2022/05/20 08:46:19;;;;;;;;;;;27.20;93.80;;;;;;4992561;28;19988;-64
2022/05/20 08:48:49;;;;;;;;;;;27.30;94.80;;;;;;4977324;28;20414;-64
2022/05/20 08:51:16;;;;;;;;;;;27.50;96.40;;;;;;4975460;28;19926;-70
2022/05/20 08:53:48;;;;;;;;;;;27.70;96.40;;;;;;4976945;28;19926;-59
2022/05/20 08:56:19;;;;;;;;;;;28.00;96.70;;;;;;4976082;28;19933;-59
2022/05/20 08:58:49;;;;;;;;;;;28.30;95.20;;;;;;4976073;28;19932;-59
2022/05/20 09:01:25;;;;;;;;;;;28.40;95.90;;;;;;4987754;28;20028;-61
2022/05/20 09:03:51;;;;;;;;;;;28.60;94.90;;;;;;4976100;28;19929;-57
2022/05/20 09:06:18;;;;;;;;;;;28.80;94.80;;;;;;4991657;28;19929;-60
2022/05/20 09:09:00;;;;;;;;;;;29.10;94.10;;;;;;4967350;28;20036;-62
2022/05/20 09:11:28;;;;;;;;;;;29.40;93.00;;;;;;4956769;28;20037;-59
2022/05/20 09:17:09;;;;;;;;;;;29.70;86.20;;;;;;4976071;28;19922;-60
2022/05/20 09:19:36;;;;;;;;;;;29.90;80.40;;;;;;4975543;28;19925;-59
2022/05/20 09:22:11;;;;;;;;;;;30.00;84.30;;;;;;4958947;28;19925;-60
2022/05/20 09:24:42;;;;;;;;;;;30.30;79.10;;;;;;4976874;28;19932;-60
2022/05/20 09:27:25;;;;;;;;;;;30.40;77.30;;;;;;4975975;28;20547;-60
2022/05/20 09:29:57;;;;;;;;;;;30.60;74.20;;;;;;4992098;28;20120;-60
2022/05/20 09:32:38;;;;;;;;;;;30.80;71.90;;;;;;4976597;28;20433;-59
2022/05/20 09:35:11;;;;;;;;;;;30.90;69.20;;;;;;4977047;28;20360;-58
2022/05/20 09:37:41;;;;;;;;;;;30.90;66.30;;;;;;4957118;28;19933;-59
2022/05/20 09:40:22;;;;;;;;;;;31.00;65.30;;;;;;4958772;28;19937;-60
2022/05/20 09:43:21;;;;;;;;;;;31.00;62.60;;;;;;4976567;28;19926;-61
2022/05/20 09:45:49;;;;;;;;;;;31.10;63.70;;;;;;4977133;28;19925;-61
2022/05/20 09:48:21;;;;;;;;;;;31.30;63.40;;;;;;4977989;28;20722;-60
2022/05/20 09:51:02;;;;;;;;;;;31.40;58.40;;;;;;4974520;28;19925;-60
2022/05/20 09:53:34;;;;;;;;;;;31.60;59.00;;;;;;4976665;28;19928;-60
2022/05/20 09:56:18;;;;;;;;;;;31.80;59.60;;;;;;4974818;28;20017;-62
2022/05/20 09:59:05;;;;;;;;;;;32.00;58.40;;;;;;4976329;28;19926;-62
2022/05/20 10:01:32;;;;;;;;;;;32.20;56.10;;;;;;4971843;28;19925;-62
2022/05/20 10:04:02;;;;;;;;;;;32.30;56.60;;;;;;4972486;28;20023;-62
2022/05/20 10:06:46;;;;;;;;;;;32.50;55.60;;;;;;4955834;28;19961;-61
2022/05/20 10:09:16;;;;;;;;;;;32.60;56.50;;;;;;4972144;28;20679;-60
2022/05/20 10:11:52;;;;;;;;;;;32.70;56.90;;;;;;4956510;28;19925;-60
2022/05/20 10:14:19;;;;;;;;;;;32.80;56.00;;;;;;4971781;28;19933;-60
2022/05/20 10:16:50;;;;;;;;;;;32.90;57.60;;;;;;4981012;28;19926;-60
2022/05/20 10:19:31;;;;;;;;;;;33.10;58.00;;;;;;4976938;28;19929;-60
2022/05/20 10:22:02;;;;;;;;;;;33.10;56.50;;;;;;4976139;28;20423;-60
2022/05/20 10:24:44;;;;;;;;;;;33.20;58.50;;;;;;4976421;28;19926;-61
2022/05/20 10:27:30;;;;;;;;;;;33.20;60.10;;;;;;4975208;28;19926;-61
2022/05/20 10:32:53;;;;;;;;;;;33.20;60.90;;;;;;4975073;28;20012;-60
2022/05/20 10:35:22;;;;;;;;;;;33.10;59.70;;;;;;4974319;28;19926;-60
2022/05/20 10:38:27;;;;;;;;;;;32.90;61.20;;;;;;4990978;28;19926;-60
2022/05/20 10:41:09;;;;;;;;;;;32.90;59.30;;;;;;4998729;28;19928;-61
2022/05/20 10:49:55;;;;;;;;;;;32.90;56.00;;;;;;4967069;28;19930;-62
2022/05/20 10:52:27;;;;;;;;;;;32.80;59.70;;;;;;4975888;28;20028;-63
2022/05/20 10:55:13;;;;;;;;;;;32.60;60.60;;;;;;4975798;28;19925;-63
2022/05/20 10:57:55;;;;;;;;;;;32.60;58.30;;;;;;4975531;28;19925;-62
2022/05/20 11:00:24;;;;;;;;;;;32.50;56.00;;;;;;4974436;28;19930;-62
2022/05/20 11:03:03;;;;;;;;;;;32.60;55.00;;;;;;4970795;28;20017;-59
2022/05/20 11:05:30;;;;;;;;;;;32.60;59.20;;;;;;4974563;28;19933;-59
2022/05/20 11:08:09;;;;;;;;;;;32.60;60.30;;;;;;4975309;28;19984;-60
2022/05/20 11:10:54;;;;;;;;;;;32.60;59.20;;;;;;4975861;28;19925;-60
2022/05/20 11:13:30;;;;;;;;;;;32.60;59.50;;;;;;4975669;28;19922;-60
2022/05/20 11:16:08;;;;;;;;;;;32.70;60.40;;;;;;4977000;28;19922;-59
2022/05/20 11:18:44;;;;;;;;;;;32.90;56.20;;;;;;4978780;28;19925;-60
2022/05/20 11:21:22;;;;;;;;;;;33.00;49.00;;;;;;4979358;28;19933;-61
2022/05/20 11:23:48;;;;;;;;;;;33.00;47.60;;;;;;4979318;28;19926;-60
2022/05/20 11:26:33;;;;;;;;;;;33.00;47.00;;;;;;4979522;28;19926;-60
2022/05/20 11:29:12;;;;;;;;;;;33.00;45.30;;;;;;4978677;28;19933;-60
2022/05/20 11:31:53;;;;;;;;;;;33.10;47.50;;;;;;4979455;28;20023;-60
2022/05/20 11:34:39;;;;;;;;;;;33.20;48.30;;;;;;4979011;28;19934;-60
2022/05/20 11:37:05;;;;;;;;;;;33.10;44.50;;;;;;4978790;28;19928;-62
2022/05/20 11:39:51;;;;;;;;;;;33.00;44.80;;;;;;4978396;28;19930;-62
2022/05/20 11:42:18;;;;;;;;;;;32.90;45.70;;;;;;4977395;28;19926;-60
2022/05/20 11:44:49;;;;;;;;;;;32.70;46.60;;;;;;4993235;28;19988;-60
2022/05/20 11:47:25;;;;;;;;;;;32.60;45.50;;;;;;4979025;28;20759;-59
2022/05/20 11:50:11;;;;;;;;;;;32.60;47.60;;;;;;4983214;28;19972;-59
2022/05/20 11:52:43;;;;;;;;;;;32.70;43.80;;;;;;4978236;28;19925;-59
2022/05/20 11:55:33;;;;;;;;;;;32.80;42.60;;;;;;4979113;28;19925;-59
2022/05/20 11:58:08;;;;;;;;;;;32.90;40.30;;;;;;4978600;28;19925;-60
2022/05/20 12:00:37;;;;;;;;;;;32.90;38.40;;;;;;4978937;28;19929;-60
2022/05/20 12:03:05;;;;;;;;;;;32.90;41.50;;;;;;4976551;28;20019;-60
2022/05/20 12:05:35;;;;;;;;;;;32.90;40.70;;;;;;4978648;28;20666;-62
2022/05/20 12:08:02;;;;;;;;;;;32.60;41.00;;;;;;4977574;28;19926;-61
2022/05/20 12:10:32;;;;;;;;;;;32.40;43.30;;;;;;4978618;28;19925;-60
2022/05/20 12:13:08;;;;;;;;;;;32.40;45.60;;;;;;4976588;28;19925;-60
2022/05/20 12:15:43;;;;;;;;;;;32.50;45.70;;;;;;4978206;28;20467;-64
2022/05/20 12:24:23;;;;;;;;;;;32.30;43.00;;;;;;4977308;28;20434;-60
2022/05/20 12:26:52;;;;;;;;;;;32.20;46.40;;;;;;4960261;28;19973;-60
2022/05/20 12:29:43;;;;;;;;;;;32.30;44.60;;;;;;4973456;28;19933;-60
2022/05/20 12:32:25;;;;;;;;;;;32.30;45.20;;;;;;4959291;28;20643;-60
2022/05/20 12:35:04;;;;;;;;;;;32.40;43.70;;;;;;4958576;28;19922;-60
2022/05/20 12:37:40;;;;;;;;;;;32.60;44.20;;;;;;4971149;28;19976;-61
2022/05/20 12:40:17;;;;;;;;;;;32.70;43.30;;;;;;4974799;28;19932;-60
2022/05/20 12:42:45;;;;;;;;;;;32.90;43.80;;;;;;4977807;28;19937;-61
2022/05/20 12:45:12;;;;;;;;;;;33.10;44.80;;;;;;4978455;28;19984;-60
2022/05/20 12:47:39;;;;;;;;;;;33.30;42.90;;;;;;4977234;28;19926;-61
2022/05/20 12:50:09;;;;;;;;;;;33.40;42.90;;;;;;4993028;28;19925;-60
2022/05/20 12:52:45;;;;;;;;;;;33.60;42.60;;;;;;4976233;28;19921;-61
2022/05/20 12:55:14;;;;;;;;;;;33.60;42.20;;;;;;4978284;28;20443;-60
2022/05/20 12:57:52;;;;;;;;;;;33.80;41.10;;;;;;4992015;28;19929;-60
2022/05/20 13:00:26;;;;;;;;;;;33.80;42.40;;;;;;4977510;28;19925;-60
2022/05/20 13:02:54;;;;;;;;;;;33.90;43.70;;;;;;4975018;28;19933;-60
2022/05/20 13:05:27;;;;;;;;;;;34.00;42.80;;;;;;4976261;28;19926;-60
2022/05/20 13:07:55;;;;;;;;;;;34.10;43.80;;;;;;4977017;28;19925;-61
2022/05/20 13:10:34;;;;;;;;;;;34.10;41.60;;;;;;4977305;28;20101;-60
2022/05/20 13:13:12;;;;;;;;;;;34.10;42.70;;;;;;4977064;28;19926;-61
2022/05/20 13:15:39;;;;;;;;;;;34.10;43.70;;;;;;4977332;28;20001;-60
2022/05/20 13:18:11;;;;;;;;;;;34.20;43.80;;;;;;4976574;28;19933;-61
2022/05/20 13:20:39;;;;;;;;;;;34.30;44.90;;;;;;4975222;28;20339;-60
2022/05/20 13:23:07;;;;;;;;;;;34.40;43.80;;;;;;4977166;28;19933;-60
2022/05/20 13:25:35;;;;;;;;;;;34.50;39.70;;;;;;4971062;28;19929;-61
2022/05/20 13:28:02;;;;;;;;;;;34.50;40.30;;;;;;4957778;28;19933;-60
2022/05/20 13:30:30;;;;;;;;;;;34.50;41.20;;;;;;4957509;28;19953;-61
2022/05/20 13:33:04;;;;;;;;;;;34.60;42.90;;;;;;4958106;28;20555;-61
2022/05/20 13:35:38;;;;;;;;;;;34.60;42.60;;;;;;4958876;28;19926;-61
2022/05/20 13:38:05;;;;;;;;;;;34.60;42.00;;;;;;4991376;28;19976;-60
2022/05/20 13:40:33;;;;;;;;;;;34.80;42.30;;;;;;4970213;28;19933;-60
2022/05/20 13:43:01;;;;;;;;;;;34.90;40.80;;;;;;4972633;28;20593;-60
2022/05/20 13:51:05;;;;;;;;;;;35.10;40.60;;;;;;4976315;28;20516;-60
2022/05/20 13:53:32;;;;;;;;;;;35.10;39.20;;;;;;4976546;28;19925;-60
2022/05/20 13:55:59;;;;;;;;;;;35.20;39.70;;;;;;4976440;28;19925;-61
2022/05/20 13:58:27;;;;;;;;;;;35.20;39.20;;;;;;4976176;28;20831;-60
2022/05/20 14:00:59;;;;;;;;;;;35.30;39.00;;;;;;4976976;28;19980;-60
2022/05/20 14:03:31;;;;;;;;;;;35.30;37.80;;;;;;4974902;28;19929;-62
2022/05/20 14:06:00;;;;;;;;;;;35.40;37.90;;;;;;4974257;28;19932;-62
2022/05/20 14:08:27;;;;;;;;;;;35.30;41.70;;;;;;4975021;28;19929;-61
2022/05/20 14:10:56;;;;;;;;;;;35.30;44.40;;;;;;4975051;28;19926;-62
2022/05/20 14:13:27;;;;;;;;;;;35.30;44.90;;;;;;4976376;28;19929;-61
2022/05/20 14:15:56;;;;;;;;;;;35.30;47.40;;;;;;4976803;28;19921;-62
2022/05/20 14:18:31;;;;;;;;;;;35.20;48.10;;;;;;4954387;28;19934;-61
2022/05/20 14:21:04;;;;;;;;;;;35.20;48.20;;;;;;4956554;28;20340;-61
2022/05/20 14:23:37;;;;;;;;;;;35.10;46.60;;;;;;4970813;28;20013;-61
2022/05/20 14:26:10;;;;;;;;;;;35.00;47.60;;;;;;4960785;28;19922;-61
2022/05/20 14:28:45;;;;;;;;;;;34.90;47.90;;;;;;4970387;28;19926;-61
2022/05/20 14:31:21;;;;;;;;;;;34.80;47.10;;;;;;4976350;28;19925;-60
2022/05/20 14:33:51;;;;;;;;;;;34.70;47.80;;;;;;4975258;28;21021;-60
2022/05/20 14:36:18;;;;;;;;;;;34.60;47.20;;;;;;4974007;28;19956;-61
2022/05/20 14:38:46;;;;;;;;;;;34.50;47.70;;;;;;4976621;28;20613;-61
2022/05/20 14:41:31;;;;;;;;;;;34.40;45.70;;;;;;4974120;28;19933;-61
2022/05/20 14:44:05;;;;;;;;;;;34.40;44.80;;;;;;4976551;28;19925;-60
2022/05/20 14:49:24;;;;;;;;;;;34.40;47.00;;;;;;4989741;28;19926;-59
2022/05/20 14:51:55;;;;;;;;;;;34.40;46.20;;;;;;4975584;28;19926;-61
2022/05/20 14:54:25;;;;;;;;;;;34.40;46.20;;;;;;4960474;28;19929;-59
2022/05/20 14:56:52;;;;;;;;;;;34.40;47.10;;;;;;4960406;28;19969;-59
2022/05/20 14:59:33;;;;;;;;;;;34.30;46.60;;;;;;4960587;28;20352;-59